Time;durP1;ratioP1;P1;durP2;ratioP2;P2;SDS_P1;SDS_P2;PMS_P1;PMS_P2;Temp;Humidity;BMP_temperature;BMP_pressure;BME280_temperature;BME280_humidity;BME280_pressure;Samples;Min_cycle;Max_cycle;Signal;HPM_P1;HPM_P2
2023/12/12 00:01:33;;;;;;;;;;;;;;;16.45;42.42;100514.09;4975826;28;893;-50
2023/12/12 00:03:59;;;;;;;;;;;;;;;15.97;43.58;100529.94;4967118;28;1140;-46
2023/12/12 00:06:24;;;;;;;;;;;;;;;15.69;43.94;100545.22;4979058;28;1041;-47
2023/12/12 00:08:50;;;;;;;;;;;;;;;16.70;42.26;100538.78;4979282;28;1096;-49
2023/12/12 00:11:15;;;;;;;;;;;;;;;17.27;40.75;100553.94;4959835;28;1135;-49
2023/12/12 00:13:41;;;;;;;;;;;;;;;16.38;42.48;100556.19;4964282;28;866;-50
2023/12/12 00:16:07;;;;;;;;;;;;;;;15.89;43.77;100562.34;4977252;28;1092;-46
2023/12/12 00:18:35;;;;;;;;;;;;;;;15.61;44.49;100563.50;4967276;28;1234;-47
2023/12/12 00:21:01;;;;;;;;;;;;;;;16.78;42.05;100549.66;4977919;28;1220;-49
2023/12/12 00:23:27;;;;;;;;;;;;;;;17.20;40.72;100546.44;4978675;28;1501;-50
2023/12/12 00:25:53;;;;;;;;;;;;;;;16.36;42.63;100558.13;4960815;28;1111;-50
2023/12/12 00:28:18;;;;;;;;;;;;;;;15.83;43.94;100546.03;4959504;28;1026;-48
2023/12/12 00:30:44;;;;;;;;;;;;;;;15.67;44.38;100558.59;4959494;28;1065;-48
2023/12/12 00:33:09;;;;;;;;;;;;;;;16.72;42.01;100552.75;4958914;28;1121;-46
2023/12/12 00:35:35;;;;;;;;;;;;;;;17.49;40.20;100551.25;4958879;28;1103;-48
2023/12/12 00:38:01;;;;;;;;;;;;;;;16.54;42.14;100542.59;4964121;28;891;-50
2023/12/12 00:40:26;;;;;;;;;;;;;;;15.98;43.23;100539.63;4965085;28;1910;-47
2023/12/12 00:42:52;;;;;;;;;;;;;;;15.73;44.09;100543.22;4965502;28;1223;-47
2023/12/12 00:45:18;;;;;;;;;;;;;;;15.54;44.59;100544.53;4978480;28;1413;-47
2023/12/12 00:47:44;;;;;;;;;;;;;;;16.04;43.56;100540.97;4965412;28;1119;-50
2023/12/12 00:50:09;;;;;;;;;;;;;;;17.22;40.84;100536.53;4966311;28;1077;-47
2023/12/12 00:52:35;;;;;;;;;;;;;;;17.20;40.56;100542.94;4965559;28;1097;-50
2023/12/12 00:55:00;;;;;;;;;;;;;;;16.34;42.34;100538.78;4965207;28;1069;-48
2023/12/12 00:57:26;;;;;;;;;;;;;;;15.90;43.37;100547.25;4965747;28;1172;-49
2023/12/12 00:59:54;;;;;;;;;;;;;;;16.06;43.53;100551.47;4972261;28;1898;-49
2023/12/12 01:02:22;;;;;;;;;;;;;;;17.37;40.64;100560.19;4964356;28;915;-50
2023/12/12 01:04:47;;;;;;;;;;;;;;;16.75;41.55;100560.50;4965913;28;1120;-47
2023/12/12 01:07:13;;;;;;;;;;;;;;;16.18;42.70;100553.22;4976938;28;1493;-49
2023/12/12 01:09:39;;;;;;;;;;;;;;;15.82;43.83;100558.44;4966227;28;1679;-49
2023/12/12 01:12:05;;;;;;;;;;;;;;;15.66;44.27;100556.06;4976845;28;1710;-48
2023/12/12 01:14:31;;;;;;;;;;;;;;;17.05;41.34;100537.00;4970152;28;1037;-48
2023/12/12 01:16:57;;;;;;;;;;;;;;;17.12;40.91;100541.72;4971808;28;1247;-49
2023/12/12 01:19:23;;;;;;;;;;;;;;;16.30;42.44;100522.25;4965884;28;1973;-47
2023/12/12 01:21:48;;;;;;;;;;;;;;;15.90;43.20;100513.63;4977224;28;1036;-50
2023/12/12 01:24:14;;;;;;;;;;;;;;;15.67;43.81;100520.63;4977055;28;1127;-50
2023/12/12 01:26:40;;;;;;;;;;;;;;;15.81;44.18;100530.22;4959491;28;1069;-47
2023/12/12 01:29:05;;;;;;;;;;;;;;;17.19;40.93;100530.59;4970478;28;1113;-48
2023/12/12 01:31:31;;;;;;;;;;;;;;;16.93;41.25;100537.00;4958616;28;1057;-47
2023/12/12 01:33:56;;;;;;;;;;;;;;;16.19;42.76;100533.69;4965435;28;1057;-47
2023/12/12 01:36:22;;;;;;;;;;;;;;;15.76;43.39;100519.97;4976348;28;1080;-49
2023/12/12 01:38:47;;;;;;;;;;;;;;;16.91;41.70;100507.03;4970930;28;1911;-49
2023/12/12 01:41:13;;;;;;;;;;;;;;;17.36;40.38;100498.22;4959300;28;1100;-46
2023/12/12 01:43:39;;;;;;;;;;;;;;;16.43;42.09;100492.97;4964410;28;1104;-47
2023/12/12 01:46:05;;;;;;;;;;;;;;;16.00;43.28;100487.28;4976778;28;1068;-46
2023/12/12 01:48:31;;;;;;;;;;;;;;;15.69;43.70;100483.38;4972530;28;1219;-47
2023/12/12 01:50:57;;;;;;;;;;;;;;;16.20;43.30;100489.41;4977442;28;1100;-48
2023/12/12 01:53:29;;;;;;;;;;;;;;;17.49;40.14;100489.22;4973479;28;1094;-48
2023/12/12 01:55:55;;;;;;;;;;;;;;;16.67;41.69;100489.38;4976487;28;1009;-45
2023/12/12 01:58:21;;;;;;;;;;;;;;;16.09;42.99;100492.88;4958256;28;1061;-47
2023/12/12 02:00:47;;;;;;;;;;;;;;;15.76;43.66;100509.34;4966913;28;1910;-49
2023/12/12 02:03:13;;;;;;;;;;;;;;;16.96;41.22;100507.53;4951061;28;1086;-49
2023/12/12 02:05:39;;;;;;;;;;;;;;;17.59;39.63;100502.63;4976019;28;1135;-49
2023/12/12 02:08:05;;;;;;;;;;;;;;;16.62;41.85;100505.66;4963817;28;1165;-47
2023/12/12 02:10:30;;;;;;;;;;;;;;;16.14;42.92;100507.50;4964372;28;1156;-47
2023/12/12 02:12:56;;;;;;;;;;;;;;;15.78;43.55;100510.06;4973564;28;1176;-46
2023/12/12 02:15:21;;;;;;;;;;;;;;;15.84;43.59;100523.84;4976866;28;1152;-49
2023/12/12 02:17:47;;;;;;;;;;;;;;;17.21;40.58;100518.91;4970809;28;1010;-48
2023/12/12 02:20:13;;;;;;;;;;;;;;;17.38;40.05;100508.72;4956684;28;1911;-48
2023/12/12 02:22:39;;;;;;;;;;;;;;;16.48;42.08;100509.38;4958266;28;1076;-50
2023/12/12 02:25:04;;;;;;;;;;;;;;;16.06;42.85;100506.38;4967281;28;1038;-48
2023/12/12 02:27:30;;;;;;;;;;;;;;;15.67;43.72;100497.59;4976539;28;1116;-48
2023/12/12 02:29:55;;;;;;;;;;;;;;;16.81;41.56;100508.72;4963745;28;1013;-48
2023/12/12 02:32:21;;;;;;;;;;;;;;;17.70;39.61;100515.88;4958162;28;1235;-48
2023/12/12 02:34:47;;;;;;;;;;;;;;;16.80;41.20;100518.47;4970879;28;1084;-50
2023/12/12 02:37:12;;;;;;;;;;;;;;;16.14;42.75;100512.81;4959437;28;1133;-44
2023/12/12 02:39:38;;;;;;;;;;;;;;;15.83;43.59;100512.38;4957843;28;1973;-47
2023/12/12 02:42:03;;;;;;;;;;;;;;;15.63;43.91;100517.34;4963872;28;1105;-45
2023/12/12 02:44:29;;;;;;;;;;;;;;;16.98;41.33;100518.03;4964308;28;1200;-47
2023/12/12 02:46:55;;;;;;;;;;;;;;;17.27;40.27;100514.06;4951419;28;884;-47
2023/12/12 02:49:20;;;;;;;;;;;;;;;16.36;42.15;100520.94;4972402;28;1119;-49
2023/12/12 02:51:46;;;;;;;;;;;;;;;15.96;42.99;100524.75;4963904;28;1168;-46
2023/12/12 02:54:11;;;;;;;;;;;;;;;15.75;43.92;100523.56;4976749;28;1029;-48
2023/12/12 02:56:37;;;;;;;;;;;;;;;17.13;40.75;100527.47;4963585;28;1068;-50
2023/12/12 02:59:03;;;;;;;;;;;;;;;16.99;41.02;100531.19;4979123;28;1910;-48
2023/12/12 03:01:28;;;;;;;;;;;;;;;16.23;42.66;100519.22;4965933;28;1112;-47
2023/12/12 03:03:54;;;;;;;;;;;;;;;15.84;43.33;100530.00;4980660;28;1111;-47
2023/12/12 03:06:19;;;;;;;;;;;;;;;15.91;43.63;100533.88;4974199;28;1060;-48
2023/12/12 03:08:45;;;;;;;;;;;;;;;17.30;40.66;100529.75;4973556;28;1121;-48
2023/12/12 03:11:11;;;;;;;;;;;;;;;16.82;41.25;100528.97;4961358;28;1072;-46
2023/12/12 03:13:36;;;;;;;;;;;;;;;16.15;42.77;100525.09;4965805;28;1223;-46
2023/12/12 03:16:02;;;;;;;;;;;;;;;15.75;43.70;100523.56;4961374;28;1503;-48
2023/12/12 03:18:27;;;;;;;;;;;;;;;15.86;43.45;100514.84;4960916;28;1014;-50
2023/12/12 03:20:53;;;;;;;;;;;;;;;17.22;40.67;100509.09;4973745;28;1910;-48
2023/12/12 03:23:18;;;;;;;;;;;;;;;16.89;41.03;100514.25;4973384;28;1125;-49
2023/12/12 03:25:44;;;;;;;;;;;;;;;16.21;42.76;100517.63;4978982;28;1030;-51
2023/12/12 03:28:10;;;;;;;;;;;;;;;15.79;43.50;100518.88;4979790;28;1133;-48
2023/12/12 03:30:36;;;;;;;;;;;;;;;15.99;43.45;100517.44;4960700;28;1192;-49
2023/12/12 03:33:01;;;;;;;;;;;;;;;17.32;40.28;100526.00;4973457;28;1057;-49
2023/12/12 03:35:27;;;;;;;;;;;;;;;16.69;41.52;100529.09;4967380;28;1160;-51
2023/12/12 03:37:53;;;;;;;;;;;;;;;16.06;42.92;100520.50;4972171;28;1176;-50
2023/12/12 03:40:18;;;;;;;;;;;;;;;15.72;43.72;100523.78;4979324;28;1969;-50
2023/12/12 03:42:44;;;;;;;;;;;;;;;16.83;41.34;100530.69;4979922;28;1132;-48
2023/12/12 03:45:10;;;;;;;;;;;;;;;17.25;40.14;100530.97;4978999;28;1048;-48
2023/12/12 03:47:35;;;;;;;;;;;;;;;16.32;42.38;100530.94;4979544;28;1072;-47
2023/12/12 03:50:01;;;;;;;;;;;;;;;15.91;43.04;100533.88;4972728;28;1052;-48
2023/12/12 03:52:27;;;;;;;;;;;;;;;15.93;43.15;100533.78;4971578;28;1141;-49
2023/12/12 03:54:52;;;;;;;;;;;;;;;17.30;40.48;100543.06;4966452;28;1076;-48
2023/12/12 03:57:18;;;;;;;;;;;;;;;17.10;40.54;100537.50;4968190;28;1056;-48
2023/12/12 03:59:44;;;;;;;;;;;;;;;16.26;42.44;100534.94;4977160;28;1910;-49
2023/12/12 04:02:09;;;;;;;;;;;;;;;15.88;43.07;100534.09;4972589;28;1152;-48
2023/12/12 04:04:35;;;;;;;;;;;;;;;15.67;43.95;100528.56;4977015;28;1132;-48
2023/12/12 04:07:03;;;;;;;;;;;;;;;15.99;43.39;100529.84;4979471;28;1076;-50
2023/12/12 04:09:28;;;;;;;;;;;;;;;17.29;40.46;100533.38;4978276;28;1100;-50
2023/12/12 04:11:54;;;;;;;;;;;;;;;17.26;39.89;100534.47;4979072;28;1076;-49
2023/12/12 04:14:19;;;;;;;;;;;;;;;16.36;41.98;100529.78;4971898;28;1084;-46
2023/12/12 04:16:46;;;;;;;;;;;;;;;15.96;42.98;100530.91;4971049;28;1140;-48
2023/12/12 04:19:11;;;;;;;;;;;;;;;15.67;43.83;100521.47;4973967;28;1990;-47
2023/12/12 04:21:37;;;;;;;;;;;;;;;16.32;42.58;100520.31;4960182;28;1127;-45
2023/12/12 04:24:02;;;;;;;;;;;;;;;17.46;39.91;100529.38;4964795;28;1164;-49
2023/12/12 04:26:31;;;;;;;;;;;;;;;16.74;41.30;100529.59;4976540;28;2359;-46
2023/12/12 04:28:56;;;;;;;;;;;;;;;16.15;42.64;100548.13;4951323;28;1848;-49
2023/12/12 04:31:22;;;;;;;;;;;;;;;15.80;43.23;100552.38;4959850;28;1756;-48
2023/12/12 04:33:48;;;;;;;;;;;;;;;15.59;43.83;100562.75;4975135;28;2085;-51
2023/12/12 04:36:14;;;;;;;;;;;;;;;16.89;41.34;100572.72;4957099;28;1847;-48
2023/12/12 04:38:39;;;;;;;;;;;;;;;17.47;39.77;100571.78;4967138;28;1859;-50
2023/12/12 04:41:05;;;;;;;;;;;;;;;16.53;41.62;100568.28;4954618;28;2085;-51
2023/12/12 04:43:31;;;;;;;;;;;;;;;16.01;42.75;100565.94;4959011;28;1084;-51
2023/12/12 04:45:57;;;;;;;;;;;;;;;15.75;43.58;100568.66;4958360;28;1345;-50
2023/12/12 04:48:22;;;;;;;;;;;;;;;16.85;41.19;100571.28;4958590;28;1300;-48
2023/12/12 04:50:48;;;;;;;;;;;;;;;17.02;40.75;100570.81;4960977;28;1090;-47
2023/12/12 04:53:14;;;;;;;;;;;;;;;16.57;41.72;100565.41;4970874;28;929;-48
2023/12/12 04:55:40;;;;;;;;;;;;;;;16.04;42.88;100570.16;4958001;28;1033;-50
2023/12/12 04:58:05;;;;;;;;;;;;;;;17.28;40.52;100579.53;4958742;28;982;-51
2023/12/12 05:00:31;;;;;;;;;;;;;;;16.82;41.30;100572.34;4971221;28;1906;-46
2023/12/12 05:02:57;;;;;;;;;;;;;;;16.14;42.71;100575.63;4965460;28;1088;-47
2023/12/12 05:05:22;;;;;;;;;;;;;;;15.83;43.16;100570.72;4965622;28;1112;-51
2023/12/12 05:07:48;;;;;;;;;;;;;;;15.86;43.35;100586.44;4958311;28;1052;-47
2023/12/12 05:10:13;;;;;;;;;;;;;;;17.21;40.51;100588.00;4958774;28;1817;-49
2023/12/12 05:12:39;;;;;;;;;;;;;;;17.00;40.81;100587.81;4958354;28;1067;-49
2023/12/12 05:15:05;;;;;;;;;;;;;;;16.25;42.52;100583.66;4958309;28;1090;-49
2023/12/12 05:17:30;;;;;;;;;;;;;;;15.85;43.06;100578.59;4965204;28;1174;-54
2023/12/12 05:19:57;;;;;;;;;;;;;;;16.08;43.19;100579.56;4965051;28;1902;-52
2023/12/12 05:22:23;;;;;;;;;;;;;;;17.36;40.29;100569.16;4958934;28;1109;-53
2023/12/12 05:24:48;;;;;;;;;;;;;;;16.75;41.15;100558.69;4958315;28;1208;-49
2023/12/12 05:27:14;;;;;;;;;;;;;;;16.52;41.91;100561.31;4969692;28;1252;-49
2023/12/12 05:29:40;;;;;;;;;;;;;;;17.84;39.02;100552.03;4958071;28;1124;-52
2023/12/12 05:32:05;;;;;;;;;;;;;;;15.99;43.02;100559.03;4957982;28;1027;-52
2023/12/12 05:34:31;;;;;;;;;;;;;;;16.95;41.14;100550.97;4958217;28;1117;-52
2023/12/12 05:36:57;;;;;;;;;;;;;;;16.83;41.06;100559.91;4960185;28;1177;-52
2023/12/12 05:39:22;;;;;;;;;;;;;;;15.69;43.40;100539.06;4958045;28;1986;-49
2023/12/12 05:41:48;;;;;;;;;;;;;;;16.61;42.32;100548.28;4957257;28;1117;-51
2023/12/12 05:44:14;;;;;;;;;;;;;;;16.11;42.74;100558.16;4958362;28;1203;-52
2023/12/12 05:46:39;;;;;;;;;;;;;;;16.79;41.79;100569.94;4958052;28;1002;-52
2023/12/12 05:49:07;;;;;;;;;;;;;;;17.84;39.15;100570.66;4957769;28;1065;-52
2023/12/12 05:51:34;;;;;;;;;;;;;;;16.09;42.82;100575.97;4958219;28;897;-50
2023/12/12 05:54:00;;;;;;;;;;;;;;;15.54;43.50;100592.25;4956814;28;1045;-48
2023/12/12 05:56:25;;;;;;;;;;;;;;;16.76;41.84;100594.94;4958215;28;1038;-47
2023/12/12 05:58:51;;;;;;;;;;;;;;;16.93;41.01;100600.75;4957276;28;1978;-50
2023/12/12 06:01:17;;;;;;;;;;;;;;;15.91;43.67;100610.00;4957796;28;1026;-52
2023/12/12 06:03:42;;;;;;;;;;;;;;;17.97;39.43;100615.72;4957410;28;1121;-52
2023/12/12 06:06:09;;;;;;;;;;;;;;;16.51;41.84;100620.69;4957871;28;1199;-51
2023/12/12 06:08:35;;;;;;;;;;;;;;;15.74;43.52;100611.19;4957126;28;1101;-50
2023/12/12 06:11:01;;;;;;;;;;;;;;;17.41;40.12;100590.06;4957782;28;2083;-50
2023/12/12 06:13:26;;;;;;;;;;;;;;;15.95;43.27;100600.81;4957259;28;1150;-48
2023/12/12 06:15:52;;;;;;;;;;;;;;;17.21;41.14;100611.09;4954631;28;1327;-48
2023/12/12 06:18:18;;;;;;;;;;;;;;;16.74;41.52;100606.63;4957778;28;1018;-49
2023/12/12 06:20:43;;;;;;;;;;;;;;;15.88;43.27;100611.03;4944880;28;1902;-51
2023/12/12 06:23:11;;;;;;;;;;;;;;;15.48;43.75;100614.72;4956918;28;1105;-51
2023/12/12 06:25:36;;;;;;;;;;;;;;;17.19;41.26;100611.22;4957404;28;1120;-50
2023/12/12 06:28:03;;;;;;;;;;;;;;;16.29;42.36;100602.84;4957489;28;1208;-51
2023/12/12 06:30:28;;;;;;;;;;;;;;;17.27;41.11;100599.13;4957567;28;1033;-47
2023/12/12 06:32:55;;;;;;;;;;;;;;;17.85;39.38;100606.91;4957885;28;1310;-53
2023/12/12 06:35:22;;;;;;;;;;;;;;;16.24;42.81;100587.28;4954537;28;1064;-51
2023/12/12 06:37:48;;;;;;;;;;;;;;;15.86;43.24;100593.56;4955564;28;1094;-51
2023/12/12 06:40:14;;;;;;;;;;;;;;;15.58;43.24;100593.72;4960621;28;1980;-52
2023/12/12 06:42:49;;;;;;;;;;;;;;;17.27;41.14;100584.00;4961077;28;1092;-52
2023/12/12 06:45:15;;;;;;;;;;;;;;;16.19;42.82;100583.25;4961234;28;997;-51
2023/12/12 06:47:41;;;;;;;;;;;;;;;17.28;41.08;100591.03;4961281;28;1050;-51
2023/12/12 06:50:07;;;;;;;;;;;;;;;17.32;40.49;100591.63;4961375;28;1136;-50
2023/12/12 06:52:32;;;;;;;;;;;;;;;16.10;43.24;100595.41;4952984;28;1219;-52
2023/12/12 06:54:58;;;;;;;;;;;;;;;15.94;44.07;100595.63;4960044;28;1192;-48
2023/12/12 06:57:25;;;;;;;;;;;;;;;17.23;41.00;100594.03;4960283;28;1176;-50
2023/12/12 06:59:51;;;;;;;;;;;;;;;15.99;43.29;100583.78;4961044;28;1983;-49
2023/12/12 07:02:17;;;;;;;;;;;;;;;15.66;43.77;100579.94;4960060;28;1267;-47
2023/12/12 07:04:42;;;;;;;;;;;;;;;15.93;43.64;100588.66;4959408;28;1261;-53
2023/12/12 07:07:09;;;;;;;;;;;;;;;16.72;42.00;100580.19;4957650;29;1233;-54
2023/12/12 07:09:35;;;;;;;;;;;;;;;15.72;44.10;100576.81;4960596;28;1923;-52
2023/12/12 07:12:00;;;;;;;;;;;;;;;17.85;40.07;100585.63;4960741;28;1053;-52
2023/12/12 07:14:26;;;;;;;;;;;;;;;16.45;42.29;100575.16;4960619;28;1133;-52
2023/12/12 07:16:51;;;;;;;;;;;;;;;15.79;43.65;100577.22;4959805;28;1464;-49
2023/12/12 07:19:17;;;;;;;;;;;;;;;17.58;40.65;100576.25;4960590;28;1910;-48
2023/12/12 07:21:42;;;;;;;;;;;;;;;16.29;43.05;100571.00;4960123;28;1232;-52
2023/12/12 07:24:10;;;;;;;;;;;;;;;15.71;43.47;100599.00;4960213;28;1149;-52
2023/12/12 07:26:36;;;;;;;;;;;;;;;16.37;43.14;100581.03;4959972;28;1014;-51
2023/12/12 07:29:01;;;;;;;;;;;;;;;16.77;41.67;100588.66;4960397;28;941;-50
2023/12/12 07:31:27;;;;;;;;;;;;;;;15.81;43.71;100585.94;4959557;28;1255;-51
2023/12/12 07:33:52;;;;;;;;;;;;;;;17.45;40.78;100573.72;4959841;28;1307;-53
2023/12/12 07:36:18;;;;;;;;;;;;;;;16.22;43.10;100586.53;4959057;29;1188;-49
2023/12/12 07:38:44;;;;;;;;;;;;;;;16.15;43.46;100588.78;4958988;28;1129;-54
2023/12/12 07:41:10;;;;;;;;;;;;;;;16.98;41.16;100587.94;4959744;28;2146;-50
2023/12/12 07:43:36;;;;;;;;;;;;;;;15.88;43.60;100575.72;4959909;28;1148;-53
2023/12/12 07:46:02;;;;;;;;;;;;;;;15.58;43.84;100590.25;4958816;28;982;-59
2023/12/12 07:48:27;;;;;;;;;;;;;;;17.48;40.88;100596.59;4947750;28;1153;-55
2023/12/12 07:50:53;;;;;;;;;;;;;;;16.85;41.64;100596.03;4973286;28;1157;-55
2023/12/12 07:53:18;;;;;;;;;;;;;;;15.96;43.23;100594.59;4960178;28;816;-51
2023/12/12 07:55:44;;;;;;;;;;;;;;;17.34;41.00;100606.50;4959787;28;1137;-51
2023/12/12 07:58:09;;;;;;;;;;;;;;;16.00;43.55;100603.19;4959336;28;1057;-50
2023/12/12 08:00:35;;;;;;;;;;;;;;;17.09;41.52;100611.06;4959575;28;1996;-51
2023/12/12 08:03:01;;;;;;;;;;;;;;;17.15;41.09;100609.72;4958964;28;1343;-53
2023/12/12 08:05:27;;;;;;;;;;;;;;;16.00;42.97;100590.75;4960648;28;1281;-52
2023/12/12 08:07:52;;;;;;;;;;;;;;;16.75;42.29;100601.19;4959005;28;1319;-55
2023/12/12 08:10:18;;;;;;;;;;;;;;;16.79;41.59;100601.81;4957216;29;1758;-54
2023/12/12 08:12:43;;;;;;;;;;;;;;;15.87;43.59;100597.88;4958551;28;1330;-52
2023/12/12 08:15:09;;;;;;;;;;;;;;;16.46;42.94;100593.63;4959501;28;1315;-52
2023/12/12 08:17:35;;;;;;;;;;;;;;;16.61;42.20;100588.97;4958514;28;1446;-55
2023/12/12 08:20:00;;;;;;;;;;;;;;;15.83;43.59;100577.88;4958179;28;1981;-52
2023/12/12 08:22:26;;;;;;;;;;;;;;;16.56;42.95;100579.66;4959424;28;1431;-52
2023/12/12 08:24:53;;;;;;;;;;;;;;;16.80;41.49;100573.44;4959667;28;1038;-51
2023/12/12 08:27:19;;;;;;;;;;;;;;;16.48;42.69;100577.59;4959477;28;1116;-54
2023/12/12 08:29:45;;;;;;;;;;;;;;;18.31;39.01;100580.19;4958188;28;1094;-50
2023/12/12 08:32:11;;;;;;;;;;;;;;;16.60;41.94;100581.13;4958751;28;1382;-53
2023/12/12 08:34:36;;;;;;;;;;;;;;;15.93;43.28;100578.91;4959038;28;1041;-53
2023/12/12 08:37:03;;;;;;;;;;;;;;;16.63;42.79;100572.94;4957532;28;1107;-51
2023/12/12 08:39:30;;;;;;;;;;;;;;;16.67;42.01;100581.47;4957622;28;1994;-52
2023/12/12 08:41:57;;;;;;;;;;;;;;;15.87;43.50;100582.81;4959879;28;1077;-51
2023/12/12 08:44:22;;;;;;;;;;;;;;;15.69;43.66;100577.06;4963501;28;1101;-50
2023/12/12 08:46:49;;;;;;;;;;;;;;;16.86;42.11;100565.84;4959233;28;1193;-51
2023/12/12 08:49:17;;;;;;;;;;;;;;;16.11;42.97;100567.91;4964549;28;1081;-49
2023/12/12 08:51:43;;;;;;;;;;;;;;;15.62;44.17;100573.13;4964322;28;1109;-50
2023/12/12 08:54:09;;;;;;;;;;;;;;;17.58;40.30;100554.97;4957411;28;1009;-48
2023/12/12 08:56:36;;;;;;;;;;;;;;;16.12;43.30;100559.84;4958749;28;1066;-50
2023/12/12 08:59:02;;;;;;;;;;;;;;;17.30;41.20;100557.19;4958699;28;1973;-49
2023/12/12 09:01:28;;;;;;;;;;;;;;;16.97;41.40;100548.19;4970810;28;1161;-51
2023/12/12 09:03:53;;;;;;;;;;;;;;;16.10;43.44;100545.81;4958713;28;1120;-49
2023/12/12 09:06:19;;;;;;;;;;;;;;;15.62;43.77;100555.44;4959058;28;1073;-53
2023/12/12 09:08:44;;;;;;;;;;;;;;;17.19;41.44;100555.38;4959035;28;1106;-49
2023/12/12 09:11:10;;;;;;;;;;;;;;;16.02;43.40;100548.19;4974026;28;2213;-52
2023/12/12 09:13:36;;;;;;;;;;;;;;;15.65;43.79;100555.22;4965424;28;1140;-51
2023/12/12 09:16:01;;;;;;;;;;;;;;;17.31;40.96;100548.25;4958090;28;1315;-50
2023/12/12 09:18:27;;;;;;;;;;;;;;;15.86;43.68;100556.41;4957241;28;1077;-50
2023/12/12 09:20:53;;;;;;;;;;;;;;;16.46;43.11;100559.13;4958679;28;1965;-51
2023/12/12 09:23:18;;;;;;;;;;;;;;;17.67;40.00;100568.50;4958033;28;1025;-50
2023/12/12 09:25:44;;;;;;;;;;;;;;;16.27;42.95;100560.50;4958083;28;1029;-50
2023/12/12 09:28:09;;;;;;;;;;;;;;;17.61;40.54;100567.19;4958328;28;1052;-49
2023/12/12 09:30:35;;;;;;;;;;;;;;;16.94;41.51;100570.56;4958080;28;1014;-52
2023/12/12 09:33:01;;;;;;;;;;;;;;;16.02;43.13;100570.28;4958072;28;1057;-48
2023/12/12 09:35:26;;;;;;;;;;;;;;;15.76;43.51;100570.34;4970229;28;1033;-50
2023/12/12 09:37:52;;;;;;;;;;;;;;;17.63;40.36;100565.25;4967018;28;1081;-48
2023/12/12 09:40:18;;;;;;;;;;;;;;;16.23;42.94;100563.50;4957232;28;2083;-51
2023/12/12 09:42:44;;;;;;;;;;;;;;;17.30;41.40;100559.84;4957440;28;1287;-53
2023/12/12 09:45:14;;;;;;;;;;;;;;;17.17;40.80;100552.00;4956039;28;1062;-51
2023/12/12 09:47:44;;;;;;;;;;;;;;;16.18;42.83;100545.28;4970241;28;1009;-51
2023/12/12 09:50:10;;;;;;;;;;;;;;;15.76;43.79;100548.28;4958042;28;1125;-51
2023/12/12 09:52:36;;;;;;;;;;;;;;;16.70;42.62;100555.53;4970280;28;1052;-53
2023/12/12 09:55:02;;;;;;;;;;;;;;;17.41;40.45;100559.00;4969276;28;1129;-53
2023/12/12 09:57:28;;;;;;;;;;;;;;;16.20;43.29;100559.25;4957585;28;1149;-52
2023/12/12 09:59:54;;;;;;;;;;;;;;;15.74;43.77;100553.69;4956802;28;1903;-50
2023/12/12 10:02:21;;;;;;;;;;;;;;;15.54;43.28;100558.66;4957180;28;1078;-52
2023/12/12 10:04:46;;;;;;;;;;;;;;;17.56;40.78;100548.94;4958941;28;1374;-51
2023/12/12 10:07:12;;;;;;;;;;;;;;;16.27;43.11;100541.06;4956241;29;1081;-48
2023/12/12 10:09:37;;;;;;;;;;;;;;;15.62;43.88;100544.81;4942437;29;2352;-51
2023/12/12 10:12:03;;;;;;;;;;;;;;;17.34;41.49;100547.16;4956635;28;1292;-54
2023/12/12 10:14:44;;;;;;;;;;;;;;;16.59;42.28;100545.75;4957148;28;1422;-51
2023/12/12 10:17:10;;;;;;;;;;;;;;;15.84;43.85;100545.06;4956815;28;1213;-54
2023/12/12 10:19:39;;;;;;;;;;;;;;;17.28;41.51;100547.66;4956896;28;1974;-52
2023/12/12 10:22:05;;;;;;;;;;;;;;;16.37;42.80;100543.88;4956754;28;1346;-51
2023/12/12 10:24:30;;;;;;;;;;;;;;;15.76;43.55;100546.50;4957044;28;1347;-44
2023/12/12 10:26:56;;;;;;;;;;;;;;;17.11;41.96;100542.72;4957115;28;1303;-51
2023/12/12 10:29:22;;;;;;;;;;;;;;;16.26;43.17;100563.25;4956551;28;1295;-49
2023/12/12 10:31:48;;;;;;;;;;;;;;;17.58;40.88;100552.31;4956618;28;1026;-51
2023/12/12 10:34:13;;;;;;;;;;;;;;;17.96;39.59;100554.66;4943937;28;1057;-50
2023/12/12 10:36:41;;;;;;;;;;;;;;;16.45;42.60;100551.28;4956990;28;1042;-46
2023/12/12 10:39:10;;;;;;;;;;;;;;;15.95;43.73;100546.94;4956605;28;1986;-48
2023/12/12 10:41:36;;;;;;;;;;;;;;;16.00;43.78;100550.09;4959731;28;1034;-48
2023/12/12 10:44:05;;;;;;;;;;;;;;;17.83;40.03;100552.16;4967173;28;1041;-48
2023/12/12 10:46:32;;;;;;;;;;;;;;;16.33;43.05;100550.38;4967517;28;986;-48
2023/12/12 10:48:58;;;;;;;;;;;;;;;17.30;41.46;100540.41;4958389;28;1044;-48
2023/12/12 10:51:24;;;;;;;;;;;;;;;17.03;41.56;100539.78;4957375;28;1006;-47
2023/12/12 10:53:51;;;;;;;;;;;;;;;16.15;43.25;100548.97;4968076;28;1132;-50
2023/12/12 10:56:17;;;;;;;;;;;;;;;15.80;43.42;100533.81;4967791;28;1109;-49
2023/12/12 10:58:43;;;;;;;;;;;;;;;16.24;43.80;100544.81;4958993;28;1049;-48
2023/12/12 11:01:09;;;;;;;;;;;;;;;16.94;41.78;100546.66;4956221;28;1911;-51
2023/12/12 11:03:35;;;;;;;;;;;;;;;15.97;43.65;100545.84;4957097;28;1108;-48
2023/12/12 11:06:01;;;;;;;;;;;;;;;16.95;42.68;100548.31;4956733;28;1092;-47
2023/12/12 11:08:27;;;;;;;;;;;;;;;16.27;43.18;100547.22;4969938;28;1109;-47
2023/12/12 11:10:53;;;;;;;;;;;;;;;15.74;43.84;100545.75;4957325;28;2058;-50
2023/12/12 11:13:20;;;;;;;;;;;;;;;16.07;44.05;100550.50;4956285;28;1181;-45
2023/12/12 11:15:46;;;;;;;;;;;;;;;16.72;42.56;100547.44;4953006;29;1280;-51
2023/12/12 11:18:14;;;;;;;;;;;;;;;15.86;43.96;100543.16;4955327;28;1303;-51
2023/12/12 11:20:40;;;;;;;;;;;;;;;17.11;42.05;100540.06;4958411;28;1902;-45
2023/12/12 11:23:07;;;;;;;;;;;;;;;16.91;42.02;100535.41;4960317;28;1006;-46
2023/12/12 11:25:34;;;;;;;;;;;;;;;16.24;43.72;100535.97;4960455;28;1205;-46
2023/12/12 11:28:01;;;;;;;;;;;;;;;18.29;39.53;100542.19;4964584;28;1080;-44
2023/12/12 11:30:45;;;;;;;;;;;;;;;16.58;42.57;100538.72;4959262;28;990;-48
2023/12/12 11:33:11;;;;;;;;;;;;;;;15.97;43.51;100532.59;4959789;29;1237;-48
2023/12/12 11:35:36;;;;;;;;;;;;;;;17.01;42.45;100533.72;4959565;28;1311;-50
2023/12/12 11:38:05;;;;;;;;;;;;;;;16.86;42.24;100533.97;4959505;28;1260;-51
2023/12/12 11:40:33;;;;;;;;;;;;;;;16.06;43.54;100533.75;4954604;28;1983;-47
2023/12/12 11:43:18;;;;;;;;;;;;;;;16.70;43.03;100534.28;4960009;28;982;-45
2023/12/12 11:45:43;;;;;;;;;;;;;;;16.86;42.04;100531.31;4957854;28;1527;-48
2023/12/12 11:48:09;;;;;;;;;;;;;;;16.05;43.68;100528.56;4954198;29;1110;-48
2023/12/12 11:50:35;;;;;;;;;;;;;;;15.84;43.31;100522.03;4959653;28;1318;-51
2023/12/12 11:53:02;;;;;;;;;;;;;;;17.37;41.77;100530.94;4960119;28;1061;-46
2023/12/12 11:55:29;;;;;;;;;;;;;;;16.50;42.87;100528.69;4958023;29;1322;-52
2023/12/12 11:58:13;;;;;;;;;;;;;;;15.93;43.96;100535.59;4959442;28;1089;-52
2023/12/12 12:00:40;;;;;;;;;;;;;;;17.20;42.05;100527.81;4959675;28;1967;-48
2023/12/12 12:03:08;;;;;;;;;;;;;;;16.21;43.26;100529.13;4960001;28;1310;-53
2023/12/12 12:05:34;;;;;;;;;;;;;;;16.11;44.54;100525.44;4959737;28;1009;-52
2023/12/12 12:08:02;;;;;;;;;;;;;;;18.13;39.94;100524.00;4959294;28;1134;-50
2023/12/12 12:10:28;;;;;;;;;;;;;;;16.39;43.08;100518.91;4959154;28;1764;-54
2023/12/12 12:12:57;;;;;;;;;;;;;;;15.86;43.95;100512.19;4959137;29;1137;-54
2023/12/12 12:15:22;;;;;;;;;;;;;;;15.66;43.69;100510.97;4958821;28;1303;-55
2023/12/12 12:17:48;;;;;;;;;;;;;;;17.61;41.35;100514.00;4958982;28;1081;-50
2023/12/12 12:20:14;;;;;;;;;;;;;;;16.39;43.14;100513.59;4958605;28;1910;-55
2023/12/12 12:22:39;;;;;;;;;;;;;;;15.85;44.14;100515.78;4954249;28;1167;-50
2023/12/12 12:25:08;;;;;;;;;;;;;;;16.27;44.15;100504.75;4950851;28;1045;-52
2023/12/12 12:27:35;;;;;;;;;;;;;;;17.41;41.13;100524.44;4958883;28;1049;-45
2023/12/12 12:30:03;;;;;;;;;;;;;;;16.03;43.95;100518.91;4958636;28;1215;-50
2023/12/12 12:32:28;;;;;;;;;;;;;;;16.58;43.43;100516.66;4955186;28;970;-52
2023/12/12 12:35:07;;;;;;;;;;;;;;;16.92;42.04;100513.16;4957514;28;1184;-51
2023/12/12 12:37:32;;;;;;;;;;;;;;;17.71;41.04;100508.75;4958933;28;1232;-53
2023/12/12 12:39:58;;;;;;;;;;;;;;;18.89;38.42;100518.56;4957625;28;1932;-46
2023/12/12 12:42:34;;;;;;;;;;;;;;;16.92;42.02;100515.81;4958663;28;1221;-48